createdAt,value
2017-11-01T00:02:23.827Z,28.40
2017-11-01T00:04:51.472Z,23.00
2017-11-01T00:07:19.258Z,26.90
2017-11-01T00:09:47.006Z,27.90
2017-11-01T00:12:14.764Z,32.97
2017-11-01T00:14:42.381Z,23.90
2017-11-01T00:17:10.850Z,29.50
2017-11-01T00:19:38.579Z,22.93
2017-11-01T00:22:06.191Z,21.03
2017-11-01T00:24:34.602Z,27.77
2017-11-01T00:27:02.350Z,25.00
2017-11-01T00:29:29.940Z,20.97
2017-11-01T00:31:57.575Z,28.27
2017-11-01T00:34:25.199Z,31.00
2017-11-01T00:36:53.623Z,26.13
2017-11-01T00:39:21.268Z,27.10
2017-11-01T00:41:48.864Z,25.53
2017-11-01T00:44:16.491Z,28.03
2017-11-01T00:46:44.115Z,25.23
2017-11-01T00:49:12.477Z,25.70
2017-11-01T00:51:40.112Z,23.17
2017-11-01T00:54:07.757Z,21.97
2017-11-01T00:56:35.563Z,20.37
2017-11-01T00:59:03.283Z,25.73
2017-11-01T01:01:31.031Z,24.37
2017-11-01T01:03:58.620Z,22.27
2017-11-01T01:06:26.316Z,26.87
2017-11-01T01:08:53.965Z,29.77
2017-11-01T01:11:21.690Z,24.60
2017-11-01T01:13:49.348Z,20.10
2017-11-01T01:16:16.983Z,33.50
2017-11-01T01:18:44.594Z,27.43
2017-11-01T01:21:12.433Z,27.03
2017-11-01T01:23:40.019Z,22.87
2017-11-01T01:26:07.659Z,26.93
2017-11-01T01:28:35.283Z,25.93
2017-11-01T01:31:03.723Z,24.23
2017-11-01T01:33:31.431Z,22.50
2017-11-01T01:35:59.194Z,23.73
2017-11-01T01:38:26.808Z,23.30
2017-11-01T01:40:54.726Z,33.90
2017-11-01T01:43:22.402Z,27.60
2017-11-01T01:45:50.072Z,23.63
2017-11-01T01:48:17.706Z,22.93
2017-11-01T01:50:45.384Z,24.87
2017-11-01T01:53:13.044Z,27.77
2017-11-01T01:55:40.711Z,26.23
2017-11-01T01:58:08.470Z,29.60
2017-11-01T02:00:36.091Z,25.67
2017-11-01T02:03:04.497Z,22.90
2017-11-01T02:05:32.111Z,25.77
2017-11-01T02:07:59.839Z,29.40
2017-11-01T02:18:09.075Z,24.53
2017-11-01T02:20:37.495Z,32.00
2017-11-01T02:23:05.135Z,26.43
2017-11-01T02:25:32.768Z,24.97
2017-11-01T02:28:01.143Z,20.10
2017-11-01T02:30:29.663Z,25.13
2017-11-01T02:32:57.270Z,28.50
2017-11-01T02:35:25.011Z,25.90
2017-11-01T02:37:52.655Z,20.93
2017-11-01T02:40:20.305Z,20.83
2017-11-01T02:42:47.964Z,24.47
2017-11-01T02:45:15.629Z,25.70
2017-11-01T02:47:43.282Z,22.90
2017-11-01T02:50:10.951Z,21.03
2017-11-01T02:52:38.607Z,22.67
2017-11-01T02:55:06.247Z,25.03
2017-11-01T02:57:33.853Z,27.83
2017-11-01T03:00:02.408Z,26.73
2017-11-01T03:02:30.023Z,24.23
2017-11-01T03:04:58.407Z,30.20
2017-11-01T03:07:26.822Z,24.00
2017-11-01T03:09:54.436Z,28.33
2017-11-01T03:12:22.092Z,24.83
2017-11-01T03:14:49.710Z,20.00
2017-11-01T03:17:17.333Z,29.40
2017-11-01T03:19:45.743Z,20.93
2017-11-01T03:22:13.362Z,25.70
2017-11-01T03:24:41.912Z,26.17
2017-11-01T03:27:09.524Z,20.60
2017-11-01T03:29:37.204Z,27.67
2017-11-01T03:32:04.815Z,19.47
2017-11-01T03:34:33.199Z,23.10
2017-11-01T03:37:01.618Z,20.63
2017-11-01T03:39:29.227Z,21.43
2017-11-01T03:41:57.654Z,22.70
2017-11-01T03:44:25.268Z,20.53
2017-11-01T03:46:53.661Z,23.73
2017-11-01T03:49:22.039Z,20.60
2017-11-01T03:51:50.450Z,19.10
2017-11-01T03:54:18.058Z,21.73
2017-11-01T03:56:45.666Z,20.97
2017-11-01T03:59:13.294Z,22.30
2017-11-01T04:01:41.655Z,23.83
2017-11-01T04:04:09.296Z,20.90
2017-11-01T04:06:36.907Z,21.20
2017-11-01T04:09:04.584Z,21.57
2017-11-01T04:11:32.244Z,17.97
2017-11-01T04:13:59.851Z,21.10
2017-11-01T04:16:28.225Z,18.63
2017-11-01T04:19:02.086Z,18.77
2017-11-01T04:21:29.747Z,23.00
2017-11-01T04:23:57.418Z,19.30
2017-11-01T04:26:25.051Z,17.97
2017-11-01T04:28:52.687Z,23.60
2017-11-01T04:31:21.278Z,18.40
2017-11-01T04:33:49.687Z,16.63
2017-11-01T04:36:17.300Z,17.40
2017-11-01T04:38:44.930Z,18.30
2017-11-01T04:41:12.674Z,21.17
2017-11-01T04:43:40.405Z,19.50
2017-11-01T04:46:08.813Z,17.50
2017-11-01T04:48:38.212Z,23.43
2017-11-01T04:51:10.648Z,15.17
2017-11-01T04:53:39.651Z,19.03
2017-11-01T04:56:11.086Z,20.00
2017-11-01T04:58:39.471Z,18.97
2017-11-01T05:01:07.850Z,18.07
2017-11-01T05:03:36.283Z,15.83
2017-11-01T05:06:04.125Z,17.60
2017-11-01T05:08:37.427Z,20.27
2017-11-01T05:11:09.091Z,24.47
2017-11-01T05:13:42.364Z,21.73
2017-11-01T05:16:10.055Z,21.10
2017-11-01T05:18:37.771Z,24.70
2017-11-01T05:21:05.378Z,20.27
2017-11-01T05:23:33.020Z,23.20
2017-11-01T05:26:06.351Z,21.57
2017-11-01T05:28:33.988Z,21.60
2017-11-01T05:31:01.607Z,22.80
2017-11-01T05:33:29.225Z,22.87
2017-11-01T05:35:56.854Z,25.87
2017-11-01T05:38:24.458Z,16.90
2017-11-01T05:40:53.063Z,19.20
2017-11-01T05:43:20.671Z,24.17
2017-11-01T05:45:48.257Z,21.00
2017-11-01T05:48:16.883Z,23.03
2017-11-01T05:50:44.543Z,20.30
2017-11-01T05:53:12.188Z,21.33
2017-11-01T05:55:39.794Z,26.90
2017-11-01T05:58:08.342Z,28.20
2017-11-01T06:00:35.979Z,21.97
2017-11-01T06:03:03.587Z,24.43
2017-11-01T06:05:31.325Z,20.37
2017-11-01T06:07:58.928Z,22.43
2017-11-01T06:10:26.572Z,22.33
2017-11-01T06:12:54.212Z,30.97
2017-11-01T06:15:21.954Z,29.20
2017-11-01T06:17:49.600Z,21.40
2017-11-01T06:20:17.987Z,16.90
2017-11-01T06:22:45.768Z,18.40
2017-11-01T06:25:13.375Z,17.67
2017-11-01T06:27:41.135Z,22.03
2017-11-01T06:30:09.806Z,24.30
2017-11-01T06:32:37.515Z,20.10
2017-11-01T06:35:05.201Z,21.10
2017-11-01T06:37:32.868Z,21.10
2017-11-01T06:40:00.522Z,20.90
2017-11-01T06:42:28.162Z,17.10
2017-11-01T06:44:55.770Z,31.53
2017-11-01T06:47:23.500Z,19.47
2017-11-01T06:49:51.159Z,19.40
2017-11-01T06:52:18.811Z,20.70
2017-11-01T06:54:46.458Z,20.47
2017-11-01T06:57:14.087Z,18.50
2017-11-01T06:59:41.720Z,18.90
2017-11-01T07:02:09.343Z,15.50
2017-11-01T07:04:36.976Z,16.47
2017-11-01T07:07:05.406Z,26.93
2017-11-01T07:09:38.691Z,21.60
2017-11-01T07:12:06.306Z,20.40
2017-11-01T07:14:34.684Z,17.47
2017-11-01T07:17:03.100Z,21.30
2017-11-01T07:19:30.708Z,20.57
2017-11-01T07:21:58.309Z,21.70
2017-11-01T07:24:25.943Z,17.87
2017-11-01T07:26:54.385Z,17.70
2017-11-01T07:29:22.125Z,22.00
2017-11-01T07:31:49.735Z,22.50
2017-11-01T07:34:18.152Z,26.23
2017-11-01T07:36:46.028Z,22.40
2017-11-01T07:39:13.689Z,21.30
2017-11-01T07:41:41.318Z,17.60
2017-11-01T07:44:09.830Z,24.50
2017-11-01T07:46:37.514Z,19.53
2017-11-01T07:49:05.158Z,21.37
2017-11-01T07:51:32.856Z,18.93
2017-11-01T07:54:00.516Z,19.90
2017-11-01T07:56:28.173Z,15.57
2017-11-01T07:58:55.784Z,23.57
2017-11-01T08:01:23.399Z,19.87
2017-11-01T08:03:51.114Z,17.00
2017-11-01T08:06:18.739Z,19.47
2017-11-01T08:08:47.116Z,25.40
2017-11-01T08:11:15.528Z,16.63
2017-11-01T08:13:43.172Z,25.23
2017-11-01T08:16:10.812Z,19.83
2017-11-01T08:18:39.256Z,18.50
2017-11-01T08:21:06.920Z,17.40
2017-11-01T08:23:34.536Z,23.10
2017-11-01T08:26:02.214Z,16.27
2017-11-01T08:28:29.978Z,19.53
2017-11-01T08:30:57.580Z,23.03
2017-11-01T08:33:25.263Z,16.60
2017-11-01T08:35:53.663Z,22.30
2017-11-01T08:38:21.272Z,17.57
2017-11-01T08:40:48.927Z,17.50
2017-11-01T08:43:16.595Z,21.93
2017-11-01T08:45:44.203Z,16.73
2017-11-01T08:48:11.832Z,18.20
2017-11-01T08:50:40.212Z,16.10
2017-11-01T08:53:08.594Z,20.53
2017-11-01T08:55:36.993Z,17.90
2017-11-01T08:58:04.599Z,20.60
2017-11-01T09:00:32.238Z,17.70
2017-11-01T09:02:59.889Z,15.20
2017-11-01T09:05:27.631Z,18.37
2017-11-01T09:07:55.268Z,15.73
2017-11-01T09:10:23.636Z,12.70
2017-11-01T09:12:51.344Z,14.83
2017-11-01T09:15:18.983Z,15.90
2017-11-01T09:17:46.584Z,17.43
2017-11-01T09:20:14.303Z,17.20
2017-11-01T09:22:41.971Z,16.37
2017-11-01T09:25:09.600Z,15.03
2017-11-01T09:27:38.082Z,25.43
2017-11-01T09:30:06.457Z,15.60
2017-11-01T09:32:34.101Z,20.60
2017-11-01T09:35:01.812Z,16.80
2017-11-01T09:37:29.693Z,16.93
2017-11-01T09:39:57.355Z,16.43
2017-11-01T09:42:25.095Z,15.90
2017-11-01T09:44:52.695Z,18.93
2017-11-01T09:47:20.436Z,20.27
2017-11-01T09:49:48.050Z,17.20
2017-11-01T09:52:16.455Z,18.90
2017-11-01T09:54:44.083Z,17.87
2017-11-01T09:57:11.791Z,16.40
2017-11-01T09:59:39.432Z,16.13
2017-11-01T10:02:07.095Z,18.20
2017-11-01T10:04:34.713Z,19.50
2017-11-01T10:07:02.323Z,17.07
2017-11-01T10:09:29.968Z,16.80
2017-11-01T10:11:57.595Z,16.97
2017-11-01T10:14:25.293Z,16.53
2017-11-01T10:16:53.136Z,15.80
2017-11-01T10:19:21.655Z,21.27
2017-11-01T10:21:49.299Z,17.97
2017-11-01T10:24:17.037Z,15.60
2017-11-01T10:26:44.670Z,16.33
2017-11-01T10:29:12.408Z,13.13
2017-11-01T10:31:40.059Z,18.37
2017-11-01T10:34:07.653Z,20.37
2017-11-01T10:36:35.390Z,18.07
2017-11-01T10:39:03.033Z,15.13
2017-11-01T10:41:30.677Z,17.17
2017-11-01T10:43:59.104Z,19.03
2017-11-01T10:46:26.704Z,17.20
2017-11-01T10:48:55.204Z,15.07
2017-11-01T10:51:22.833Z,16.07
2017-11-01T10:53:50.480Z,17.40
2017-11-01T10:56:18.095Z,19.80
2017-11-01T10:58:45.815Z,24.17
2017-11-01T11:01:13.419Z,15.07
2017-11-01T11:03:41.088Z,12.30
2017-11-01T11:06:08.718Z,17.67
2017-11-01T11:08:37.085Z,15.90
2017-11-01T11:11:05.472Z,21.33
2017-11-01T11:13:33.881Z,13.93
2017-11-01T11:16:01.550Z,19.70
2017-11-01T11:18:29.187Z,17.77
2017-11-01T11:20:56.848Z,13.97
2017-11-01T11:23:24.533Z,16.30
2017-11-01T11:25:52.160Z,15.00
2017-11-01T11:28:19.921Z,19.30
2017-11-01T11:30:48.310Z,19.50
2017-11-01T11:33:15.974Z,16.83
2017-11-01T11:35:43.646Z,21.30
2017-11-01T11:38:11.311Z,14.73
2017-11-01T11:40:38.935Z,18.70
2017-11-01T11:43:07.357Z,15.40
2017-11-01T11:45:35.110Z,18.70
2017-11-01T11:48:02.728Z,20.47
2017-11-01T11:50:31.240Z,14.23
2017-11-01T11:52:59.930Z,18.13
2017-11-01T11:55:27.572Z,15.07
2017-11-01T11:57:55.235Z,13.70
2017-11-01T12:00:22.852Z,19.20
2017-11-01T12:02:51.264Z,11.87
2017-11-01T12:05:19.671Z,12.50
2017-11-01T12:07:47.352Z,22.30
2017-11-01T12:10:14.999Z,17.30
2017-11-01T12:12:42.620Z,14.20
2017-11-01T12:15:11.046Z,18.53
2017-11-01T12:17:38.748Z,13.50
2017-11-01T12:20:07.230Z,13.57
2017-11-01T12:22:35.672Z,16.03
2017-11-01T12:25:03.450Z,13.47
2017-11-01T12:27:31.864Z,10.83
2017-11-01T12:30:00.245Z,14.40
2017-11-01T12:32:27.923Z,11.97
2017-11-01T12:34:55.627Z,13.23
2017-11-01T12:37:23.226Z,19.77
2017-11-01T12:39:50.883Z,12.03
2017-11-01T12:42:19.393Z,12.40
2017-11-01T12:44:47.569Z,13.00
2017-11-01T12:47:15.249Z,13.60
2017-11-01T12:49:42.912Z,18.93
2017-11-01T12:52:10.527Z,15.87
2017-11-01T12:54:38.307Z,13.43
2017-11-01T12:57:06.173Z,14.00
2017-11-01T12:59:33.849Z,13.80
2017-11-01T13:02:01.504Z,12.53
2017-11-01T13:04:29.156Z,12.10
2017-11-01T13:06:56.824Z,11.37
2017-11-01T13:09:24.444Z,11.60
2017-11-01T13:11:52.859Z,14.53
2017-11-01T13:14:20.473Z,11.10
2017-11-01T13:16:48.523Z,16.07
2017-11-01T13:19:16.224Z,19.07
2017-11-01T13:21:43.848Z,11.87
2017-11-01T13:24:12.297Z,11.40
2017-11-01T13:26:39.943Z,15.53
2017-11-01T13:29:07.571Z,11.73
2017-11-01T13:31:36.052Z,12.97
2017-11-01T13:34:04.416Z,11.47
2017-11-01T13:36:32.047Z,12.20
2017-11-01T13:38:59.663Z,13.47
2017-11-01T13:41:27.256Z,12.37
2017-11-01T13:43:54.862Z,12.97
2017-11-01T13:46:23.229Z,9.93
2017-11-01T13:48:51.648Z,10.30
2017-11-01T13:51:19.237Z,13.87
2017-11-01T13:53:46.972Z,9.90
2017-11-01T13:56:14.639Z,10.37
2017-11-01T13:58:42.294Z,10.07
2017-11-01T14:01:10.262Z,11.60
2017-11-01T14:03:37.869Z,9.47
2017-11-01T14:06:07.023Z,13.37
2017-11-01T14:08:34.615Z,9.47
2017-11-01T14:11:02.208Z,9.03
2017-11-01T14:13:30.728Z,6.97
2017-11-01T14:15:58.335Z,8.57
2017-11-01T14:21:00.154Z,9.70
2017-11-01T14:23:27.909Z,6.80
2017-11-01T14:25:55.520Z,9.10
2017-11-01T14:28:23.265Z,13.80
2017-11-01T14:30:51.711Z,15.57
2017-11-01T14:33:19.383Z,6.50
2017-11-01T14:35:47.135Z,6.43
2017-11-01T14:38:14.749Z,7.90
2017-11-01T14:40:43.183Z,9.70
2017-11-01T14:43:10.785Z,7.80
2017-11-01T14:45:38.401Z,4.57
2017-11-01T14:48:06.068Z,7.27
2017-11-01T14:50:33.685Z,9.73
2017-11-01T14:53:02.090Z,5.93
2017-11-01T14:55:29.749Z,5.93
2017-11-01T14:57:57.512Z,8.03
2017-11-01T15:00:25.286Z,6.20
2017-11-01T15:02:52.955Z,4.67
2017-11-01T15:05:20.698Z,4.57
2017-11-01T15:07:48.304Z,9.10
2017-11-01T15:10:15.932Z,8.43
2017-11-01T15:12:43.548Z,10.47
2017-11-01T15:15:12.058Z,12.43
2017-11-01T15:17:39.723Z,14.57
2017-11-01T15:20:07.372Z,6.93
2017-11-01T15:22:34.983Z,19.93
2017-11-01T15:25:03.422Z,14.20
2017-11-01T15:27:31.030Z,12.43
2017-11-01T15:29:59.504Z,10.30
2017-11-01T15:32:27.916Z,7.47
2017-11-01T15:34:55.574Z,7.60
2017-11-01T15:37:23.179Z,6.13
2017-11-01T15:39:50.816Z,8.33
2017-11-01T15:42:18.413Z,8.07
2017-11-01T15:44:47.704Z,6.70
2017-11-01T15:47:15.343Z,8.10
2017-11-01T15:49:42.989Z,8.53
2017-11-01T15:52:10.604Z,7.17
2017-11-01T15:54:38.207Z,7.60
2017-11-01T15:57:05.929Z,11.67
2017-11-01T15:59:34.320Z,5.23
2017-11-01T16:02:02.830Z,9.73
2017-11-01T16:04:30.429Z,11.63
2017-11-01T16:06:58.094Z,9.93
2017-11-01T16:09:25.740Z,14.93
2017-11-01T16:11:53.366Z,9.47
2017-11-01T16:14:21.234Z,8.03
2017-11-01T16:16:49.102Z,9.67
2017-11-01T16:19:16.794Z,6.43
2017-11-01T16:21:44.465Z,7.60
2017-11-01T16:24:12.087Z,9.20
2017-11-01T16:26:39.729Z,10.63
2017-11-01T16:29:07.363Z,10.70
2017-11-01T16:31:35.770Z,11.07
2017-11-01T16:34:03.414Z,7.27
2017-11-01T16:36:31.816Z,8.87
2017-11-01T16:38:59.481Z,6.83
2017-11-01T16:41:27.092Z,11.60
2017-11-01T16:43:55.487Z,7.13
2017-11-01T16:46:23.997Z,11.53
2017-11-01T16:48:51.739Z,9.90
2017-11-01T16:51:19.398Z,8.33
2017-11-01T16:53:47.007Z,20.80
2017-11-01T16:56:14.639Z,14.20
2017-11-01T16:58:42.271Z,8.90
2017-11-01T17:01:10.700Z,9.77
2017-11-01T17:03:38.417Z,12.23
2017-11-01T17:06:06.045Z,7.53
2017-11-01T17:08:33.703Z,10.40
2017-11-01T17:11:01.422Z,9.37
2017-11-01T17:13:29.065Z,6.30
2017-11-01T17:15:56.687Z,12.80
2017-11-01T17:18:24.403Z,12.87
2017-11-01T17:20:52.147Z,12.20
2017-11-01T17:23:19.776Z,15.30
2017-11-01T17:25:47.490Z,11.33
2017-11-01T17:28:15.105Z,11.33
2017-11-01T17:30:43.484Z,13.20
2017-11-01T17:33:11.144Z,12.00
2017-11-01T17:35:39.549Z,13.27
2017-11-01T17:38:07.224Z,11.50
2017-11-01T17:40:34.886Z,14.50
2017-11-01T17:43:02.553Z,15.13
2017-11-01T17:45:30.227Z,12.77
2017-11-01T17:47:57.856Z,12.23
2017-11-01T17:50:25.483Z,10.20
2017-11-01T17:52:53.908Z,9.63
2017-11-01T17:55:21.536Z,9.67
2017-11-01T17:57:49.934Z,12.10
2017-11-01T18:00:17.824Z,16.20
2017-11-01T18:02:45.518Z,11.33
2017-11-01T18:05:13.450Z,12.00
2017-11-01T18:07:41.096Z,8.07
2017-11-01T18:10:08.981Z,10.80
2017-11-01T18:12:36.662Z,8.90
2017-11-01T18:15:04.429Z,12.63
2017-11-01T18:17:32.082Z,12.27
2017-11-01T18:19:59.787Z,15.07
2017-11-01T18:22:27.532Z,13.33
2017-11-01T18:24:55.965Z,14.13
2017-11-01T18:27:23.863Z,17.40
2017-11-01T18:29:52.252Z,14.33
2017-11-01T18:32:20.672Z,15.87
2017-11-01T18:34:48.334Z,13.20
2017-11-01T18:37:16.198Z,17.83
2017-11-01T18:39:43.833Z,14.10
2017-11-01T18:42:11.470Z,18.27
2017-11-01T18:44:39.888Z,18.53
2017-11-01T18:47:07.547Z,17.53
2017-11-01T18:49:35.160Z,21.40
2017-11-01T18:52:02.944Z,17.70
2017-11-01T18:54:31.355Z,22.83
2017-11-01T18:56:59.021Z,22.67
2017-11-01T18:59:26.658Z,21.83
2017-11-01T19:01:54.293Z,23.57
2017-11-01T19:04:22.719Z,17.73
2017-11-01T19:06:50.331Z,21.70
2017-11-01T19:09:18.735Z,18.37
2017-11-01T19:11:46.367Z,21.53
2017-11-01T19:14:13.968Z,22.97
2017-11-01T19:16:41.612Z,15.90
2017-11-01T19:19:09.232Z,26.53
2017-11-01T19:21:36.900Z,23.80
2017-11-01T19:24:05.336Z,23.07
2017-11-01T19:26:32.952Z,22.27
2017-11-01T19:29:01.481Z,16.47
2017-11-01T19:31:29.178Z,19.43
2017-11-01T19:33:56.862Z,18.80
2017-11-01T19:36:24.531Z,22.80
2017-11-01T19:38:52.295Z,21.10
2017-11-01T19:41:19.993Z,17.47
2017-11-01T19:43:47.751Z,21.73
2017-11-01T19:46:15.408Z,19.37
2017-11-01T19:48:43.095Z,14.50
2017-11-01T19:51:10.716Z,21.37
2017-11-01T19:53:38.487Z,19.73
2017-11-01T19:56:06.255Z,15.37
2017-11-01T19:58:33.905Z,30.00
2017-11-01T20:01:01.762Z,18.80
2017-11-01T20:03:29.429Z,22.43
2017-11-01T20:05:57.095Z,24.73
2017-11-01T20:08:24.857Z,22.33
2017-11-01T20:10:52.603Z,18.00
2017-11-01T20:13:20.384Z,25.27
2017-11-01T20:15:48.102Z,23.17
2017-11-01T20:18:15.738Z,18.23
2017-11-01T20:20:43.570Z,23.63
2017-11-01T20:23:11.205Z,21.90
2017-11-01T20:25:38.932Z,20.97
2017-11-01T20:28:07.136Z,23.80
2017-11-01T20:30:35.028Z,19.87
2017-11-01T20:33:02.713Z,17.97
2017-11-01T20:35:30.429Z,20.67
2017-11-01T20:37:58.120Z,21.20
2017-11-01T20:40:25.745Z,23.13
2017-11-01T20:42:54.459Z,25.87
2017-11-01T20:45:22.127Z,23.87
2017-11-01T20:47:49.941Z,19.47
2017-11-01T20:50:18.389Z,25.63
2017-11-01T20:52:46.031Z,28.80
2017-11-01T20:55:14.039Z,22.17
2017-11-01T20:57:41.862Z,22.20
2017-11-01T21:00:09.489Z,20.67
2017-11-01T21:02:37.964Z,26.03
2017-11-01T21:05:06.532Z,18.37
2017-11-01T21:07:34.203Z,24.83
2017-11-01T21:10:01.825Z,24.90
2017-11-01T21:12:29.508Z,30.67
2017-11-01T21:14:57.114Z,27.37
2017-11-01T21:17:24.969Z,22.23
2017-11-01T21:19:52.740Z,30.73
2017-11-01T21:22:20.505Z,32.47
2017-11-01T21:24:48.271Z,30.90
2017-11-01T21:27:15.932Z,34.57
2017-11-01T21:29:43.810Z,24.27
2017-11-01T21:32:11.432Z,24.97
2017-11-01T21:34:39.117Z,22.57
2017-11-01T21:37:06.787Z,23.23
2017-11-01T21:39:34.419Z,21.83
2017-11-01T21:42:02.056Z,17.93
2017-11-01T21:44:30.422Z,20.13
2017-11-01T21:46:58.128Z,16.40
2017-11-01T21:49:25.798Z,16.40
2017-11-01T21:51:53.676Z,20.27
2017-11-01T21:54:21.350Z,19.07
2017-11-01T21:56:49.015Z,19.77
2017-11-01T21:59:16.640Z,15.00
2017-11-01T22:01:44.399Z,15.57
2017-11-01T22:04:12.025Z,16.70
2017-11-01T22:06:40.403Z,20.63
2017-11-01T22:09:08.889Z,16.97
2017-11-01T22:11:37.280Z,16.93
2017-11-01T22:14:05.065Z,18.03
2017-11-01T22:16:32.796Z,19.43
2017-11-01T22:19:00.468Z,17.23
2017-11-01T22:21:28.075Z,20.60
2017-11-01T22:23:55.789Z,17.60
2017-11-01T22:26:23.468Z,15.30
2017-11-01T22:28:51.085Z,16.50
2017-11-01T22:31:18.722Z,16.40
2017-11-01T22:33:46.375Z,19.10
2017-11-01T22:36:14.014Z,15.80
2017-11-01T22:38:41.634Z,19.20
2017-11-01T22:41:09.533Z,19.80
2017-11-01T22:43:37.179Z,20.70
2017-11-01T22:46:04.794Z,18.50
2017-11-01T22:48:33.239Z,16.70
2017-11-01T22:51:00.911Z,17.50
2017-11-01T22:53:28.551Z,20.70
2017-11-01T22:55:56.285Z,20.63
2017-11-01T22:58:24.659Z,17.97
2017-11-01T23:00:53.228Z,19.27
2017-11-01T23:03:21.664Z,15.53
2017-11-01T23:05:49.275Z,15.70
2017-11-01T23:08:17.650Z,17.20
2017-11-01T23:10:46.078Z,22.33
2017-11-01T23:13:13.749Z,16.30
2017-11-01T23:15:41.399Z,19.60
2017-11-01T23:18:09.053Z,19.00
2017-11-01T23:20:36.648Z,18.10
2017-11-01T23:23:04.575Z,16.80
2017-11-01T23:25:32.204Z,17.57
2017-11-01T23:28:00.565Z,23.33
2017-11-01T23:30:29.007Z,18.83
2017-11-01T23:32:56.631Z,20.23
2017-11-01T23:35:24.308Z,23.60
2017-11-01T23:37:52.056Z,18.67
2017-11-01T23:40:19.685Z,17.20
2017-11-01T23:42:48.079Z,15.63
2017-11-01T23:45:17.143Z,19.23
2017-11-01T23:47:44.734Z,16.57
2017-11-01T23:50:12.391Z,19.27
2017-11-01T23:52:40.771Z,18.07
2017-11-01T23:55:08.416Z,22.40
2017-11-01T23:57:36.799Z,18.53
